ΕΜΥ, Εθνική Μετεωρολογική Υπηρεσία - Δελτία Καιρού, Προγνώσεις

ΑΕΡΟΝΑΥΤΙΛΙΑ

GREEK AIRPORTS CODES

LGAT 270300Z AUTO 00000KT //// // ////// 18/13 Q1013 RE//=

EUROPEAN AIRPORTS CODES

LFPO 270300Z 26007KT 240V300 9999 FEW015 BKN026 15/12 Q1013TEMPO 4000 -RADZ BKN012=